Weather at Cape Town International Airport

Public forecast

Using degrees Celsius for public forecast. Weather courtesy of forecast.io.

Current aviation weather report (METAR) for Cape Town International Airport

Retrieved 2020/11/27 13:00 UTC (23 minutes ago):

FACT 271300Z 20014KT CAVOK 26/09 Q1014 NOSIG

Aviation forecast (TAF) for Cape Town International Airport

Retrieved 2020/11/27 12:00 UTC (1 hour ago):

TAF FACT 271000Z 2712/2818 16020KT CAVOK TX27/2712Z TN13/2804Z FM280300 16020KT 9999 SCT020